createdAt,value
2022-11-29T00:01:35.777Z,16.30
2022-11-29T00:04:03.777Z,16.95
2022-11-29T00:06:33.417Z,16.60
2022-11-29T00:09:06.173Z,16.52
2022-11-29T00:11:55.754Z,16.42
2022-11-29T00:14:24.478Z,17.70
2022-11-29T00:16:59.167Z,18.77
2022-11-29T00:19:26.744Z,19.83
2022-11-29T00:21:54.442Z,19.55
2022-11-29T00:24:22.110Z,21.30
2022-11-29T00:26:50.120Z,20.02
2022-11-29T00:29:17.852Z,19.13
2022-11-29T00:31:45.369Z,21.27
2022-11-29T00:34:12.968Z,23.52
2022-11-29T00:36:40.873Z,22.92
2022-11-29T00:39:11.693Z,26.67
2022-11-29T00:41:39.488Z,32.38
2022-11-29T00:44:07.054Z,36.95
2022-11-29T00:46:34.505Z,40.38
2022-11-29T00:49:02.178Z,38.92
2022-11-29T00:51:29.640Z,34.83
2022-11-29T00:53:57.112Z,41.53
2022-11-29T00:56:24.533Z,41.78
2022-11-29T00:58:52.041Z,44.35
2022-11-29T01:01:19.647Z,45.22
2022-11-29T01:03:47.311Z,47.30
2022-11-29T01:06:17.044Z,44.03
2022-11-29T01:08:45.718Z,45.15
2022-11-29T01:11:18.382Z,46.50
2022-11-29T01:13:46.289Z,45.42
2022-11-29T01:16:15.783Z,40.63
2022-11-29T01:18:43.631Z,40.97
2022-11-29T01:21:13.579Z,41.88
2022-11-29T01:23:41.628Z,39.10
2022-11-29T01:28:39.503Z,37.78
2022-11-29T01:31:16.636Z,40.85
2022-11-29T01:33:44.279Z,41.70
2022-11-29T01:36:14.084Z,40.00
2022-11-29T01:38:42.603Z,40.60
2022-11-29T01:41:17.373Z,42.33
2022-11-29T01:44:11.309Z,39.42
2022-11-29T01:46:41.342Z,37.70
2022-11-29T01:49:14.961Z,38.92
2022-11-29T01:52:03.996Z,39.40
2022-11-29T01:54:34.379Z,41.40
2022-11-29T01:57:05.454Z,38.72
2022-11-29T01:59:34.348Z,37.08
2022-11-29T02:02:22.170Z,36.00
2022-11-29T02:07:17.461Z,35.50
2022-11-29T02:09:45.095Z,35.35
2022-11-29T02:12:27.628Z,35.42
2022-11-29T02:14:58.138Z,37.10
2022-11-29T02:17:40.250Z,37.22
2022-11-29T02:20:31.653Z,36.42
2022-11-29T02:23:23.522Z,35.88
2022-11-29T02:26:21.276Z,35.75
2022-11-29T02:29:09.609Z,34.63
2022-11-29T02:31:51.461Z,36.28
2022-11-29T02:34:44.002Z,35.85
2022-11-29T02:37:38.635Z,36.55
2022-11-29T02:40:25.234Z,35.60
2022-11-29T02:43:07.133Z,36.17
2022-11-29T02:45:51.394Z,37.83
2022-11-29T02:48:40.020Z,38.13
2022-11-29T02:51:47.721Z,37.95
2022-11-29T02:57:12.572Z,37.63
2022-11-29T02:59:59.760Z,39.05
2022-11-29T03:02:32.725Z,39.15
2022-11-29T03:05:21.721Z,40.05
2022-11-29T03:08:13.916Z,42.55
2022-11-29T03:11:06.715Z,42.55
2022-11-29T03:13:36.886Z,45.30
2022-11-29T03:16:16.420Z,42.78
2022-11-29T03:19:17.313Z,44.00
2022-11-29T03:22:23.555Z,43.67
2022-11-29T03:24:55.957Z,43.45
2022-11-29T03:27:40.529Z,45.65
2022-11-29T03:30:13.763Z,45.25
2022-11-29T03:32:56.233Z,46.25
2022-11-29T03:35:35.175Z,45.67
2022-11-29T03:38:21.789Z,45.85
2022-11-29T03:40:59.744Z,45.17
2022-11-29T03:43:51.292Z,42.67
2022-11-29T03:46:25.680Z,41.38
2022-11-29T03:49:02.585Z,40.35
2022-11-29T03:51:41.585Z,40.35
2022-11-29T03:54:16.399Z,42.20
2022-11-29T03:56:44.185Z,40.83
2022-11-29T03:59:24.620Z,41.50
2022-11-29T04:02:13.091Z,41.95
2022-11-29T04:05:05.552Z,39.67
2022-11-29T04:07:54.007Z,38.47
2022-11-29T04:11:17.893Z,39.38
2022-11-29T04:14:11.996Z,36.63
2022-11-29T04:17:03.743Z,34.63
2022-11-29T04:19:34.145Z,34.92
2022-11-29T04:22:20.471Z,37.05
2022-11-29T04:25:22.140Z,35.15
2022-11-29T04:28:27.073Z,33.28
2022-11-29T04:31:15.538Z,33.75
2022-11-29T04:34:01.526Z,33.83
2022-11-29T04:36:54.574Z,34.63
2022-11-29T04:39:31.083Z,35.67
2022-11-29T04:42:47.172Z,38.90
2022-11-29T04:45:17.470Z,36.85
2022-11-29T04:48:16.004Z,38.30
2022-11-29T04:51:10.909Z,37.47
2022-11-29T04:53:53.748Z,37.28
2022-11-29T04:56:49.165Z,40.50
2022-11-29T04:59:44.310Z,38.72
2022-11-29T05:02:36.926Z,37.00
2022-11-29T05:05:31.973Z,37.65
2022-11-29T05:07:59.414Z,39.50
2022-11-29T05:10:58.526Z,41.20
2022-11-29T05:13:44.504Z,40.22
2022-11-29T05:16:28.757Z,39.28
2022-11-29T05:19:29.836Z,38.28
2022-11-29T05:22:13.384Z,36.45
2022-11-29T05:25:03.153Z,37.78
2022-11-29T05:27:49.344Z,37.22
2022-11-29T05:30:20.879Z,37.08
2022-11-29T05:33:05.135Z,39.83
2022-11-29T05:35:52.951Z,37.92
2022-11-29T05:38:57.856Z,38.08
2022-11-29T05:41:46.229Z,33.38
2022-11-29T05:44:32.789Z,35.60
2022-11-29T05:47:06.261Z,35.38
2022-11-29T05:49:57.840Z,35.28
2022-11-29T05:52:31.614Z,32.13
2022-11-29T05:55:13.982Z,32.45
2022-11-29T05:57:57.617Z,32.95
2022-11-29T06:00:30.438Z,33.22
2022-11-29T06:03:25.769Z,32.08
2022-11-29T06:06:08.057Z,28.77
2022-11-29T06:08:54.904Z,28.77
2022-11-29T06:11:30.759Z,29.17
2022-11-29T06:14:30.773Z,27.55
2022-11-29T06:17:25.931Z,28.23
2022-11-29T06:20:09.095Z,28.45
2022-11-29T06:23:02.040Z,28.88
2022-11-29T06:26:03.515Z,30.25
2022-11-29T06:28:57.632Z,29.23
2022-11-29T06:31:43.548Z,25.40
2022-11-29T06:34:31.016Z,26.55
2022-11-29T06:37:25.064Z,25.65
2022-11-29T06:39:53.844Z,24.90
2022-11-29T06:42:21.319Z,25.27
2022-11-29T06:44:49.094Z,24.25
2022-11-29T06:47:40.803Z,24.70
2022-11-29T06:50:33.622Z,21.45
2022-11-29T06:53:34.141Z,23.95
2022-11-29T06:56:25.539Z,23.48
2022-11-29T06:59:05.217Z,24.10
2022-11-29T07:01:53.946Z,24.55
2022-11-29T07:04:46.414Z,24.08
2022-11-29T07:07:19.489Z,24.17
2022-11-29T07:09:49.640Z,25.25
2022-11-29T07:12:17.945Z,25.90
2022-11-29T07:14:46.084Z,23.85
2022-11-29T07:17:45.066Z,24.83
2022-11-29T07:20:36.944Z,24.08
2022-11-29T07:23:27.047Z,25.55
2022-11-29T07:26:10.721Z,21.08
2022-11-29T07:28:53.194Z,24.33
2022-11-29T07:31:28.427Z,22.92
2022-11-29T07:34:14.894Z,23.95
2022-11-29T07:37:06.958Z,22.35
2022-11-29T07:39:46.216Z,23.85
2022-11-29T07:42:31.002Z,24.17
2022-11-29T07:45:21.554Z,25.67
2022-11-29T07:47:50.127Z,25.58
2022-11-29T07:50:17.850Z,24.20
2022-11-29T07:52:45.469Z,22.48
2022-11-29T07:55:19.410Z,24.27
2022-11-29T07:57:48.168Z,25.77
2022-11-29T08:00:16.515Z,26.50
2022-11-29T08:02:44.377Z,26.10
2022-11-29T08:05:12.286Z,25.30
2022-11-29T08:07:41.244Z,25.40
2022-11-29T08:10:12.026Z,26.90
2022-11-29T08:12:48.295Z,26.95
2022-11-29T08:15:17.154Z,27.33
2022-11-29T08:17:44.822Z,28.00
2022-11-29T08:20:14.118Z,30.02
2022-11-29T08:22:41.659Z,29.50
2022-11-29T08:25:10.462Z,30.67
2022-11-29T08:27:39.096Z,31.40
2022-11-29T08:30:08.062Z,29.30
2022-11-29T08:32:35.976Z,30.67
2022-11-29T08:35:03.719Z,28.33
2022-11-29T08:37:31.165Z,28.95
2022-11-29T08:39:58.961Z,28.17
2022-11-29T08:42:27.278Z,28.85
2022-11-29T08:44:54.760Z,27.40
2022-11-29T08:47:37.682Z,25.52
2022-11-29T08:50:16.643Z,24.58
2022-11-29T08:53:42.408Z,25.30
2022-11-29T08:56:49.492Z,19.15
2022-11-29T08:58:57.453Z,18.88
2022-11-29T09:01:29.226Z,18.40
2022-11-29T09:03:59.835Z,18.42
2022-11-29T09:06:29.670Z,20.42
2022-11-29T09:08:58.166Z,17.63
2022-11-29T09:11:27.611Z,16.73
2022-11-29T09:13:58.952Z,16.50
2022-11-29T09:16:29.260Z,18.30
2022-11-29T09:18:57.370Z,19.20
2022-11-29T09:21:27.403Z,19.20
2022-11-29T09:23:59.079Z,18.42
2022-11-29T09:26:31.993Z,18.90
2022-11-29T09:29:03.481Z,18.95
2022-11-29T09:31:32.843Z,18.52
2022-11-29T09:34:00.935Z,18.98
2022-11-29T09:36:30.229Z,15.68
2022-11-29T09:38:59.159Z,17.60
2022-11-29T09:41:53.277Z,17.95
2022-11-29T09:44:53.595Z,17.67
2022-11-29T09:47:39.098Z,17.38
2022-11-29T09:50:28.263Z,18.85
2022-11-29T09:53:12.150Z,19.27
2022-11-29T09:56:10.942Z,18.38
2022-11-29T09:58:56.709Z,18.55
2022-11-29T10:02:19.721Z,16.67
2022-11-29T10:04:57.228Z,18.10
2022-11-29T10:07:40.524Z,16.45
2022-11-29T10:10:29.916Z,17.13
2022-11-29T10:13:17.826Z,16.35
2022-11-29T10:15:59.369Z,17.83
2022-11-29T10:18:40.325Z,19.02
2022-11-29T10:21:34.132Z,17.65
2022-11-29T10:25:21.222Z,19.05
2022-11-29T10:27:16.856Z,18.27
2022-11-29T10:29:56.113Z,13.93
2022-11-29T10:32:34.379Z,15.48
2022-11-29T10:35:26.940Z,13.50
2022-11-29T10:38:29.779Z,14.70
2022-11-29T10:41:07.204Z,12.43
2022-11-29T10:44:24.984Z,14.85
2022-11-29T10:47:35.617Z,15.13
2022-11-29T10:54:12.593Z,15.43
2022-11-29T10:57:32.910Z,14.93
2022-11-29T11:00:37.411Z,15.38
2022-11-29T11:03:33.331Z,16.67
2022-11-29T11:08:07.189Z,19.05
2022-11-29T11:09:56.602Z,19.77
2022-11-29T11:13:12.430Z,21.63
2022-11-29T11:16:11.021Z,21.02
2022-11-29T11:20:01.213Z,19.95
2022-11-29T11:23:22.296Z,19.25
2022-11-29T11:26:30.572Z,21.45
2022-11-29T11:29:45.029Z,21.10
2022-11-29T11:32:30.878Z,21.80
2022-11-29T11:37:04.397Z,21.15
2022-11-29T11:38:52.857Z,21.13
2022-11-29T11:45:41.152Z,20.95
2022-11-29T11:48:28.203Z,20.08
2022-11-29T11:55:32.653Z,18.77
2022-11-29T12:02:49.538Z,18.38
2022-11-29T12:06:29.315Z,16.95
2022-11-29T12:14:37.707Z,19.60
2022-11-29T12:17:25.923Z,16.58
2022-11-29T12:20:45.359Z,15.35
2022-11-29T12:23:23.870Z,15.88
2022-11-29T12:26:48.928Z,17.23
2022-11-29T12:29:22.016Z,17.13
2022-11-29T12:32:21.878Z,18.38
2022-11-29T12:35:12.680Z,18.95
2022-11-29T12:41:18.447Z,16.50
2022-11-29T12:44:43.360Z,16.45
2022-11-29T12:47:57.850Z,16.48
2022-11-29T12:51:24.331Z,16.48
2022-11-29T12:54:07.593Z,17.27
2022-11-29T12:57:08.694Z,16.75
2022-11-29T13:01:05.204Z,15.05
2022-11-29T13:03:57.753Z,15.55
2022-11-29T13:07:34.765Z,16.98
2022-11-29T13:10:31.893Z,17.65
2022-11-29T13:13:46.934Z,17.40
2022-11-29T13:21:00.867Z,16.65
2022-11-29T13:32:14.501Z,16.50
2022-11-29T13:35:18.846Z,16.65
2022-11-29T13:50:48.131Z,16.90
2022-11-29T13:54:11.374Z,18.08
2022-11-29T13:56:48.113Z,17.60
2022-11-29T13:59:55.932Z,18.17
2022-11-29T14:02:44.528Z,19.08
2022-11-29T14:05:31.537Z,18.98
2022-11-29T14:08:48.041Z,18.42
2022-11-29T14:11:54.049Z,17.13
2022-11-29T14:14:48.371Z,17.15
2022-11-29T14:20:47.918Z,15.43
2022-11-29T14:24:11.297Z,16.63
2022-11-29T14:27:30.152Z,16.00
2022-11-29T14:31:26.226Z,16.15
2022-11-29T14:38:12.675Z,16.13
2022-11-29T14:41:36.640Z,17.45
2022-11-29T14:47:15.264Z,16.00
2022-11-29T14:50:37.018Z,18.08
2022-11-29T14:53:56.380Z,18.08
2022-11-29T15:04:58.551Z,19.38
2022-11-29T15:33:55.172Z,20.90
2022-11-29T15:37:17.636Z,21.25
2022-11-29T15:40:57.311Z,22.10
2022-11-29T15:43:37.418Z,20.40
2022-11-29T15:52:40.009Z,22.20
2022-11-29T15:59:18.032Z,22.48
2022-11-29T16:02:56.852Z,24.67
2022-11-29T16:15:44.851Z,30.73
2022-11-29T16:22:28.271Z,31.45
2022-11-29T16:29:28.585Z,27.13
2022-11-29T16:31:56.451Z,33.85
2022-11-29T16:34:40.946Z,34.67
2022-11-29T16:37:24.813Z,30.45
2022-11-29T16:39:57.729Z,32.03
2022-11-29T16:42:43.392Z,34.45
2022-11-29T16:46:06.785Z,40.10
2022-11-29T16:48:40.871Z,34.97
2022-11-29T16:51:12.598Z,34.38
2022-11-29T16:54:29.175Z,31.60
2022-11-29T17:02:01.416Z,36.13
2022-11-29T17:04:59.172Z,32.53
2022-11-29T17:10:43.738Z,35.88
2022-11-29T17:13:26.538Z,34.85
2022-11-29T17:15:54.227Z,36.47
2022-11-29T17:18:29.128Z,36.40
2022-11-29T17:22:39.325Z,36.60
2022-11-29T17:25:57.748Z,36.55
2022-11-29T17:28:44.266Z,37.67
2022-11-29T17:31:21.650Z,36.20
2022-11-29T17:33:50.041Z,35.92
2022-11-29T17:38:48.422Z,37.50
2022-11-29T17:41:25.684Z,37.92
2022-11-29T17:44:11.576Z,37.78
2022-11-29T17:47:09.135Z,38.53
2022-11-29T17:49:56.745Z,36.80
2022-11-29T17:52:47.214Z,38.50
2022-11-29T17:55:40.155Z,37.67
2022-11-29T17:58:47.819Z,38.88
2022-11-29T18:01:24.403Z,39.90
2022-11-29T18:03:54.654Z,41.60
2022-11-29T18:06:31.620Z,40.50
2022-11-29T18:09:20.619Z,40.45
2022-11-29T18:11:50.351Z,39.92
2022-11-29T18:14:43.994Z,37.08
2022-11-29T18:17:43.606Z,38.13
2022-11-29T18:20:17.235Z,39.85
2022-11-29T18:22:47.222Z,41.85
2022-11-29T18:25:38.610Z,42.53
2022-11-29T18:28:40.174Z,43.10
2022-11-29T18:31:24.085Z,43.72
2022-11-29T18:34:18.862Z,42.42
2022-11-29T18:36:49.656Z,40.55
2022-11-29T18:40:18.977Z,41.00
2022-11-29T18:42:55.894Z,40.38
2022-11-29T18:45:28.591Z,39.30
2022-11-29T18:47:56.244Z,39.22
2022-11-29T18:50:31.646Z,40.85
2022-11-29T18:53:00.873Z,42.22
2022-11-29T18:55:29.989Z,43.72
2022-11-29T18:57:57.542Z,43.08
2022-11-29T19:00:25.352Z,43.10
2022-11-29T19:02:57.449Z,43.45
2022-11-29T19:05:26.972Z,45.70
2022-11-29T19:07:54.590Z,44.17
2022-11-29T19:10:22.238Z,43.17
2022-11-29T19:12:49.817Z,42.70
2022-11-29T19:15:18.176Z,43.65
2022-11-29T19:17:47.930Z,48.30
2022-11-29T19:20:15.610Z,60.85
2022-11-29T19:22:43.282Z,50.97
2022-11-29T19:25:12.713Z,45.97
2022-11-29T19:27:44.918Z,45.35
2022-11-29T19:30:17.298Z,44.13
2022-11-29T19:32:45.133Z,43.97
2022-11-29T19:35:13.321Z,51.55
2022-11-29T19:37:43.783Z,43.05
2022-11-29T19:40:13.774Z,42.78
2022-11-29T19:42:48.707Z,40.83
2022-11-29T19:45:17.800Z,42.85
2022-11-29T19:47:45.871Z,42.90
2022-11-29T19:50:13.438Z,44.00
2022-11-29T19:52:40.948Z,45.13
2022-11-29T19:55:13.983Z,44.97
2022-11-29T19:57:41.589Z,47.05
2022-11-29T20:00:09.535Z,45.20
2022-11-29T20:02:39.964Z,44.72
2022-11-29T20:05:08.697Z,45.30
2022-11-29T20:07:36.113Z,44.95
2022-11-29T20:10:04.088Z,45.85
2022-11-29T20:12:32.796Z,45.95
2022-11-29T20:15:01.097Z,44.83
2022-11-29T20:17:28.621Z,45.88
2022-11-29T20:19:56.109Z,46.70
2022-11-29T20:22:23.610Z,46.78
2022-11-29T20:24:51.208Z,46.85
2022-11-29T20:27:18.681Z,48.67
2022-11-29T20:29:46.345Z,46.58
2022-11-29T20:32:14.020Z,44.47
2022-11-29T20:34:42.215Z,48.50
2022-11-29T20:37:27.036Z,47.33
2022-11-29T20:40:03.875Z,47.28
2022-11-29T20:42:41.355Z,47.92
2022-11-29T20:45:13.559Z,44.83
2022-11-29T20:47:47.367Z,45.75
2022-11-29T20:50:24.199Z,48.58
2022-11-29T20:53:03.815Z,48.63
2022-11-29T20:55:33.709Z,47.88
2022-11-29T20:58:01.149Z,49.05
2022-11-29T21:00:28.679Z,50.20
2022-11-29T21:02:56.494Z,49.97
2022-11-29T21:05:23.980Z,48.55
2022-11-29T21:07:51.683Z,48.85
2022-11-29T21:10:19.335Z,49.65
2022-11-29T21:12:48.289Z,49.65
2022-11-29T21:15:16.321Z,49.50
2022-11-29T21:17:44.610Z,46.83
2022-11-29T21:20:22.998Z,46.45
2022-11-29T21:23:18.449Z,47.60
2022-11-29T21:25:55.843Z,47.22
2022-11-29T21:28:29.968Z,47.65
2022-11-29T21:30:57.733Z,46.03
2022-11-29T21:33:25.342Z,47.75
2022-11-29T21:35:55.631Z,48.75
2022-11-29T21:38:24.220Z,46.22
2022-11-29T21:40:52.003Z,46.97
2022-11-29T21:43:20.801Z,46.80
2022-11-29T21:45:50.299Z,46.78
2022-11-29T21:48:35.824Z,47.53
2022-11-29T21:51:06.209Z,44.97
2022-11-29T21:53:38.346Z,47.72
2022-11-29T21:56:08.125Z,45.80
2022-11-29T21:58:37.234Z,46.15
2022-11-29T22:01:08.400Z,46.45
2022-11-29T22:03:35.897Z,45.92
2022-11-29T22:06:09.182Z,46.15
2022-11-29T22:08:41.160Z,46.08
2022-11-29T22:11:15.123Z,45.05
2022-11-29T22:14:02.252Z,46.20
2022-11-29T22:16:30.344Z,46.85
2022-11-29T22:18:57.921Z,47.63
2022-11-29T22:21:25.354Z,46.22
2022-11-29T22:23:52.935Z,48.00
2022-11-29T22:26:22.046Z,46.53
2022-11-29T22:28:49.526Z,46.92
2022-11-29T22:31:17.004Z,47.28
2022-11-29T22:33:44.448Z,45.20
2022-11-29T22:36:13.518Z,46.97
2022-11-29T22:38:40.978Z,48.15
2022-11-29T22:41:10.960Z,47.95
2022-11-29T22:43:40.114Z,48.42
2022-11-29T22:46:08.985Z,48.75
2022-11-29T22:48:39.329Z,49.80
2022-11-29T22:51:11.589Z,49.40
2022-11-29T22:53:40.970Z,49.38
2022-11-29T22:56:10.513Z,47.78
2022-11-29T22:58:38.241Z,49.40
2022-11-29T23:01:11.995Z,48.28
2022-11-29T23:03:44.305Z,48.80
2022-11-29T23:06:13.222Z,48.70
2022-11-29T23:08:43.338Z,49.10
2022-11-29T23:11:13.682Z,47.25
2022-11-29T23:13:42.420Z,47.88
2022-11-29T23:16:17.019Z,48.20
2022-11-29T23:18:48.245Z,49.05
2022-11-29T23:21:16.960Z,49.72
2022-11-29T23:23:44.969Z,50.45
2022-11-29T23:26:23.530Z,50.00
2022-11-29T23:28:51.283Z,50.47
2022-11-29T23:31:18.898Z,49.97
2022-11-29T23:33:46.864Z,50.08
2022-11-29T23:36:15.873Z,48.95
2022-11-29T23:38:43.594Z,49.72
2022-11-29T23:41:12.020Z,51.10
2022-11-29T23:43:40.674Z,51.35
2022-11-29T23:46:12.156Z,49.17
2022-11-29T23:48:39.638Z,50.65
2022-11-29T23:51:07.361Z,47.38
2022-11-29T23:53:34.865Z,48.03
2022-11-29T23:56:05.663Z,49.30
2022-11-29T23:58:34.656Z,46.83
